sensor_id;sensor_type;location;lat;lon;timestamp;P1;durP1;ratioP1;P2;durP2;ratioP2
43640;SDS011;72791;52.546;13.570;2024-02-14T00:00:02;21.77;;;11.25;;
43640;SDS011;72791;52.546;13.570;2024-02-14T00:04:00;23.70;;;11.60;;
43640;SDS011;72791;52.546;13.570;2024-02-14T00:07:50;18.10;;;10.43;;
43640;SDS011;72791;52.546;13.570;2024-02-14T00:15:21;20.98;;;10.98;;
43640;SDS011;72791;52.546;13.570;2024-02-14T00:19:21;17.77;;;10.38;;
43640;SDS011;72791;52.546;13.570;2024-02-14T00:22:52;18.73;;;10.77;;
43640;SDS011;72791;52.546;13.570;2024-02-14T00:26:46;22.55;;;10.73;;
43640;SDS011;72791;52.546;13.570;2024-02-14T00:31:07;20.70;;;10.13;;
43640;SDS011;72791;52.546;13.570;2024-02-14T00:33:55;23.35;;;11.52;;
43640;SDS011;72791;52.546;13.570;2024-02-14T00:37:05;24.30;;;10.52;;
43640;SDS011;72791;52.546;13.570;2024-02-14T00:44:04;23.63;;;11.38;;
43640;SDS011;72791;52.546;13.570;2024-02-14T00:46:59;18.90;;;10.05;;
43640;SDS011;72791;52.546;13.570;2024-02-14T00:49:53;19.25;;;10.07;;
43640;SDS011;72791;52.546;13.570;2024-02-14T00:52:21;20.75;;;12.10;;
43640;SDS011;72791;52.546;13.570;2024-02-14T00:54:47;22.77;;;9.95;;
43640;SDS011;72791;52.546;13.570;2024-02-14T00:57:12;20.48;;;11.40;;
43640;SDS011;72791;52.546;13.570;2024-02-14T00:59:48;22.20;;;10.35;;
43640;SDS011;72791;52.546;13.570;2024-02-14T01:02:16;20.45;;;11.07;;
43640;SDS011;72791;52.546;13.570;2024-02-14T01:04:43;21.02;;;10.73;;
43640;SDS011;72791;52.546;13.570;2024-02-14T01:07:09;18.90;;;10.30;;
43640;SDS011;72791;52.546;13.570;2024-02-14T01:09:36;18.17;;;9.10;;
43640;SDS011;72791;52.546;13.570;2024-02-14T01:12:02;17.83;;;10.43;;
43640;SDS011;72791;52.546;13.570;2024-02-14T01:14:29;20.90;;;10.65;;
43640;SDS011;72791;52.546;13.570;2024-02-14T01:16:56;22.13;;;10.63;;
43640;SDS011;72791;52.546;13.570;2024-02-14T01:19:25;17.38;;;9.77;;
43640;SDS011;72791;52.546;13.570;2024-02-14T01:22:01;19.90;;;11.30;;
43640;SDS011;72791;52.546;13.570;2024-02-14T01:24:34;17.58;;;10.23;;
43640;SDS011;72791;52.546;13.570;2024-02-14T01:27:02;21.58;;;10.25;;
43640;SDS011;72791;52.546;13.570;2024-02-14T01:29:28;14.95;;;9.43;;
43640;SDS011;72791;52.546;13.570;2024-02-14T01:31:58;19.10;;;10.07;;
43640;SDS011;72791;52.546;13.570;2024-02-14T01:34:55;17.95;;;9.68;;
43640;SDS011;72791;52.546;13.570;2024-02-14T01:37:21;17.73;;;10.10;;
43640;SDS011;72791;52.546;13.570;2024-02-14T01:39:47;19.13;;;9.23;;
43640;SDS011;72791;52.546;13.570;2024-02-14T01:42:16;17.73;;;8.95;;
43640;SDS011;72791;52.546;13.570;2024-02-14T01:45:14;19.33;;;9.90;;
43640;SDS011;72791;52.546;13.570;2024-02-14T01:48:11;19.13;;;10.20;;
43640;SDS011;72791;52.546;13.570;2024-02-14T01:51:49;15.77;;;8.65;;
43640;SDS011;72791;52.546;13.570;2024-02-14T01:58:42;18.13;;;8.48;;
43640;SDS011;72791;52.546;13.570;2024-02-14T02:01:11;15.23;;;8.50;;
43640;SDS011;72791;52.546;13.570;2024-02-14T02:03:37;16.52;;;9.20;;
43640;SDS011;72791;52.546;13.570;2024-02-14T02:06:06;19.63;;;10.20;;
43640;SDS011;72791;52.546;13.570;2024-02-14T02:08:33;19.65;;;9.75;;
43640;SDS011;72791;52.546;13.570;2024-02-14T02:10:59;15.82;;;8.63;;
43640;SDS011;72791;52.546;13.570;2024-02-14T02:13:26;19.15;;;9.15;;
43640;SDS011;72791;52.546;13.570;2024-02-14T02:15:53;18.80;;;9.40;;
43640;SDS011;72791;52.546;13.570;2024-02-14T02:18:19;16.90;;;8.55;;
43640;SDS011;72791;52.546;13.570;2024-02-14T02:20:46;16.52;;;9.02;;
43640;SDS011;72791;52.546;13.570;2024-02-14T02:23:12;19.98;;;9.57;;
43640;SDS011;72791;52.546;13.570;2024-02-14T02:25:43;18.30;;;9.35;;
43640;SDS011;72791;52.546;13.570;2024-02-14T02:28:11;19.40;;;9.30;;
43640;SDS011;72791;52.546;13.570;2024-02-14T02:30:37;15.02;;;8.93;;
43640;SDS011;72791;52.546;13.570;2024-02-14T02:33:03;19.10;;;9.73;;
43640;SDS011;72791;52.546;13.570;2024-02-14T02:35:30;13.77;;;8.43;;
43640;SDS011;72791;52.546;13.570;2024-02-14T02:38:04;16.38;;;8.68;;
43640;SDS011;72791;52.546;13.570;2024-02-14T02:40:30;19.17;;;9.52;;
43640;SDS011;72791;52.546;13.570;2024-02-14T02:42:57;15.43;;;8.48;;
43640;SDS011;72791;52.546;13.570;2024-02-14T02:45:25;17.20;;;9.60;;
43640;SDS011;72791;52.546;13.570;2024-02-14T02:47:51;17.88;;;9.30;;
43640;SDS011;72791;52.546;13.570;2024-02-14T02:54:02;15.38;;;8.68;;
43640;SDS011;72791;52.546;13.570;2024-02-14T03:08:11;17.52;;;8.60;;
43640;SDS011;72791;52.546;13.570;2024-02-14T03:13:49;18.17;;;10.73;;
43640;SDS011;72791;52.546;13.570;2024-02-14T03:16:15;20.17;;;9.55;;
43640;SDS011;72791;52.546;13.570;2024-02-14T03:18:44;15.15;;;8.88;;
43640;SDS011;72791;52.546;13.570;2024-02-14T03:21:11;18.48;;;9.80;;
43640;SDS011;72791;52.546;13.570;2024-02-14T03:23:37;16.38;;;9.52;;
43640;SDS011;72791;52.546;13.570;2024-02-14T03:26:04;18.10;;;9.93;;
43640;SDS011;72791;52.546;13.570;2024-02-14T03:28:33;15.85;;;9.70;;
43640;SDS011;72791;52.546;13.570;2024-02-14T03:30:59;22.27;;;10.75;;
43640;SDS011;72791;52.546;13.570;2024-02-14T03:33:28;17.38;;;9.65;;
43640;SDS011;72791;52.546;13.570;2024-02-14T03:35:54;18.90;;;9.30;;
43640;SDS011;72791;52.546;13.570;2024-02-14T03:38:26;16.33;;;9.10;;
43640;SDS011;72791;52.546;13.570;2024-02-14T03:40:53;17.25;;;9.45;;
43640;SDS011;72791;52.546;13.570;2024-02-14T03:43:20;16.05;;;9.25;;
43640;SDS011;72791;52.546;13.570;2024-02-14T03:45:48;17.13;;;9.20;;
43640;SDS011;72791;52.546;13.570;2024-02-14T03:48:15;18.48;;;9.88;;
43640;SDS011;72791;52.546;13.570;2024-02-14T03:50:43;15.52;;;8.82;;
43640;SDS011;72791;52.546;13.570;2024-02-14T03:53:10;16.63;;;9.55;;
43640;SDS011;72791;52.546;13.570;2024-02-14T03:55:36;16.10;;;9.75;;
43640;SDS011;72791;52.546;13.570;2024-02-14T03:58:02;14.93;;;8.55;;
43640;SDS011;72791;52.546;13.570;2024-02-14T04:00:33;13.43;;;8.73;;
43640;SDS011;72791;52.546;13.570;2024-02-14T04:03:00;21.35;;;8.85;;
43640;SDS011;72791;52.546;13.570;2024-02-14T04:05:28;17.30;;;9.18;;
43640;SDS011;72791;52.546;13.570;2024-02-14T04:07:54;13.93;;;8.82;;
43640;SDS011;72791;52.546;13.570;2024-02-14T04:10:21;19.05;;;9.82;;
43640;SDS011;72791;52.546;13.570;2024-02-14T04:12:47;14.63;;;8.40;;
43640;SDS011;72791;52.546;13.570;2024-02-14T04:15:13;14.73;;;8.13;;
43640;SDS011;72791;52.546;13.570;2024-02-14T04:17:39;16.02;;;9.00;;
43640;SDS011;72791;52.546;13.570;2024-02-14T04:20:05;15.40;;;9.13;;
43640;SDS011;72791;52.546;13.570;2024-02-14T04:22:31;22.17;;;10.82;;
43640;SDS011;72791;52.546;13.570;2024-02-14T04:24:56;18.08;;;9.43;;
43640;SDS011;72791;52.546;13.570;2024-02-14T04:27:22;15.43;;;8.85;;
43640;SDS011;72791;52.546;13.570;2024-02-14T04:29:48;15.65;;;8.35;;
43640;SDS011;72791;52.546;13.570;2024-02-14T04:32:14;14.77;;;9.00;;
43640;SDS011;72791;52.546;13.570;2024-02-14T04:34:40;16.80;;;8.80;;
43640;SDS011;72791;52.546;13.570;2024-02-14T04:37:07;14.43;;;9.13;;
43640;SDS011;72791;52.546;13.570;2024-02-14T04:39:35;15.13;;;10.05;;
43640;SDS011;72791;52.546;13.570;2024-02-14T04:42:01;17.42;;;9.95;;
43640;SDS011;72791;52.546;13.570;2024-02-14T04:44:30;13.05;;;8.10;;
43640;SDS011;72791;52.546;13.570;2024-02-14T04:46:57;16.58;;;8.73;;
43640;SDS011;72791;52.546;13.570;2024-02-14T04:49:24;16.42;;;9.30;;
43640;SDS011;72791;52.546;13.570;2024-02-14T04:51:51;14.65;;;8.45;;
43640;SDS011;72791;52.546;13.570;2024-02-14T04:54:18;15.38;;;9.20;;
43640;SDS011;72791;52.546;13.570;2024-02-14T04:56:44;17.45;;;8.20;;
43640;SDS011;72791;52.546;13.570;2024-02-14T04:59:12;15.98;;;8.65;;
43640;SDS011;72791;52.546;13.570;2024-02-14T05:01:39;17.83;;;9.38;;
43640;SDS011;72791;52.546;13.570;2024-02-14T05:04:08;12.07;;;7.68;;
43640;SDS011;72791;52.546;13.570;2024-02-14T05:06:35;18.10;;;8.52;;
43640;SDS011;72791;52.546;13.570;2024-02-14T05:09:01;12.63;;;7.95;;
43640;SDS011;72791;52.546;13.570;2024-02-14T05:11:27;16.27;;;8.77;;
43640;SDS011;72791;52.546;13.570;2024-02-14T05:13:53;11.82;;;7.82;;
43640;SDS011;72791;52.546;13.570;2024-02-14T05:16:19;16.92;;;8.77;;
43640;SDS011;72791;52.546;13.570;2024-02-14T05:18:45;13.23;;;7.90;;
43640;SDS011;72791;52.546;13.570;2024-02-14T05:21:12;14.48;;;7.35;;
43640;SDS011;72791;52.546;13.570;2024-02-14T05:23:38;11.85;;;7.53;;
43640;SDS011;72791;52.546;13.570;2024-02-14T05:26:03;12.65;;;7.25;;
43640;SDS011;72791;52.546;13.570;2024-02-14T05:28:30;17.55;;;7.68;;
43640;SDS011;72791;52.546;13.570;2024-02-14T05:30:56;16.20;;;7.90;;
43640;SDS011;72791;52.546;13.570;2024-02-14T05:33:22;12.65;;;7.72;;
43640;SDS011;72791;52.546;13.570;2024-02-14T05:35:48;17.90;;;7.90;;
43640;SDS011;72791;52.546;13.570;2024-02-14T05:38:15;17.90;;;7.35;;
43640;SDS011;72791;52.546;13.570;2024-02-14T05:40:45;11.40;;;7.15;;
43640;SDS011;72791;52.546;13.570;2024-02-14T05:43:12;11.05;;;7.35;;
43640;SDS011;72791;52.546;13.570;2024-02-14T05:45:38;19.42;;;8.27;;
43640;SDS011;72791;52.546;13.570;2024-02-14T05:48:04;13.23;;;7.60;;
43640;SDS011;72791;52.546;13.570;2024-02-14T05:50:30;15.10;;;7.50;;
43640;SDS011;72791;52.546;13.570;2024-02-14T05:52:56;12.30;;;7.50;;
43640;SDS011;72791;52.546;13.570;2024-02-14T05:55:23;11.05;;;7.10;;
43640;SDS011;72791;52.546;13.570;2024-02-14T05:57:50;12.43;;;6.63;;
43640;SDS011;72791;52.546;13.570;2024-02-14T06:00:19;14.85;;;7.85;;
43640;SDS011;72791;52.546;13.570;2024-02-14T06:02:48;11.85;;;7.18;;
43640;SDS011;72791;52.546;13.570;2024-02-14T06:05:14;10.52;;;7.03;;
43640;SDS011;72791;52.546;13.570;2024-02-14T06:07:43;18.45;;;7.05;;
43640;SDS011;72791;52.546;13.570;2024-02-14T06:10:11;10.85;;;6.22;;
43640;SDS011;72791;52.546;13.570;2024-02-14T06:12:39;10.50;;;6.50;;
43640;SDS011;72791;52.546;13.570;2024-02-14T06:15:09;11.57;;;7.22;;
43640;SDS011;72791;52.546;13.570;2024-02-14T06:17:35;15.10;;;6.90;;
43640;SDS011;72791;52.546;13.570;2024-02-14T06:20:01;12.13;;;6.90;;
43640;SDS011;72791;52.546;13.570;2024-02-14T06:22:33;15.45;;;6.60;;
43640;SDS011;72791;52.546;13.570;2024-02-14T06:24:59;12.20;;;7.28;;
43640;SDS011;72791;52.546;13.570;2024-02-14T06:27:26;9.45;;;6.60;;
43640;SDS011;72791;52.546;13.570;2024-02-14T06:29:53;12.43;;;6.57;;
43640;SDS011;72791;52.546;13.570;2024-02-14T06:32:19;13.93;;;7.20;;
43640;SDS011;72791;52.546;13.570;2024-02-14T06:34:45;12.38;;;7.40;;
43640;SDS011;72791;52.546;13.570;2024-02-14T06:37:11;15.75;;;7.70;;
43640;SDS011;72791;52.546;13.570;2024-02-14T06:39:37;13.98;;;6.85;;
43640;SDS011;72791;52.546;13.570;2024-02-14T06:42:02;9.75;;;6.68;;
43640;SDS011;72791;52.546;13.570;2024-02-14T06:44:31;11.13;;;6.60;;
43640;SDS011;72791;52.546;13.570;2024-02-14T06:46:57;12.23;;;6.35;;
43640;SDS011;72791;52.546;13.570;2024-02-14T06:49:23;9.30;;;6.15;;
43640;SDS011;72791;52.546;13.570;2024-02-14T06:51:48;18.33;;;7.80;;
43640;SDS011;72791;52.546;13.570;2024-02-14T06:54:14;10.15;;;6.60;;
43640;SDS011;72791;52.546;13.570;2024-02-14T06:56:42;14.15;;;8.30;;
43640;SDS011;72791;52.546;13.570;2024-02-14T06:59:07;14.57;;;7.43;;
43640;SDS011;72791;52.546;13.570;2024-02-14T07:01:34;10.65;;;6.45;;
43640;SDS011;72791;52.546;13.570;2024-02-14T07:04:01;14.05;;;6.25;;
43640;SDS011;72791;52.546;13.570;2024-02-14T07:06:28;13.52;;;6.85;;
43640;SDS011;72791;52.546;13.570;2024-02-14T07:08:55;11.68;;;6.10;;
43640;SDS011;72791;52.546;13.570;2024-02-14T07:11:21;14.02;;;7.78;;
43640;SDS011;72791;52.546;13.570;2024-02-14T07:13:47;10.73;;;6.05;;
43640;SDS011;72791;52.546;13.570;2024-02-14T07:16:14;11.60;;;6.18;;
43640;SDS011;72791;52.546;13.570;2024-02-14T07:18:39;10.85;;;6.13;;
43640;SDS011;72791;52.546;13.570;2024-02-14T07:21:06;12.90;;;6.63;;
43640;SDS011;72791;52.546;13.570;2024-02-14T07:23:32;16.65;;;7.13;;
43640;SDS011;72791;52.546;13.570;2024-02-14T07:25:59;11.20;;;5.90;;
43640;SDS011;72791;52.546;13.570;2024-02-14T07:28:26;12.75;;;6.07;;
43640;SDS011;72791;52.546;13.570;2024-02-14T07:30:52;10.23;;;5.93;;
43640;SDS011;72791;52.546;13.570;2024-02-14T07:33:19;11.60;;;5.63;;
43640;SDS011;72791;52.546;13.570;2024-02-14T07:35:44;10.10;;;6.03;;
43640;SDS011;72791;52.546;13.570;2024-02-14T07:38:13;10.02;;;5.93;;
43640;SDS011;72791;52.546;13.570;2024-02-14T07:40:39;12.00;;;6.78;;
43640;SDS011;72791;52.546;13.570;2024-02-14T07:43:06;9.52;;;5.90;;
43640;SDS011;72791;52.546;13.570;2024-02-14T07:45:32;9.50;;;5.72;;
43640;SDS011;72791;52.546;13.570;2024-02-14T07:47:58;9.38;;;5.60;;
43640;SDS011;72791;52.546;13.570;2024-02-14T07:50:24;8.57;;;5.13;;
43640;SDS011;72791;52.546;13.570;2024-02-14T07:52:49;11.82;;;6.38;;
43640;SDS011;72791;52.546;13.570;2024-02-14T07:55:16;9.38;;;5.28;;
43640;SDS011;72791;52.546;13.570;2024-02-14T07:57:42;11.45;;;5.55;;
43640;SDS011;72791;52.546;13.570;2024-02-14T08:00:08;8.35;;;5.72;;
43640;SDS011;72791;52.546;13.570;2024-02-14T08:02:55;8.80;;;5.93;;
43640;SDS011;72791;52.546;13.570;2024-02-14T08:05:20;14.27;;;6.18;;
43640;SDS011;72791;52.546;13.570;2024-02-14T08:07:46;13.50;;;6.10;;
43640;SDS011;72791;52.546;13.570;2024-02-14T08:10:12;18.63;;;5.25;;
43640;SDS011;72791;52.546;13.570;2024-02-14T08:12:38;11.10;;;5.60;;
43640;SDS011;72791;52.546;13.570;2024-02-14T08:15:04;8.55;;;5.53;;
43640;SDS011;72791;52.546;13.570;2024-02-14T08:17:32;6.78;;;5.25;;
43640;SDS011;72791;52.546;13.570;2024-02-14T08:19:58;11.35;;;5.40;;
43640;SDS011;72791;52.546;13.570;2024-02-14T08:22:25;11.80;;;6.80;;
43640;SDS011;72791;52.546;13.570;2024-02-14T08:24:52;10.80;;;6.45;;
43640;SDS011;72791;52.546;13.570;2024-02-14T08:27:18;11.43;;;5.13;;
43640;SDS011;72791;52.546;13.570;2024-02-14T08:29:45;8.35;;;5.60;;
43640;SDS011;72791;52.546;13.570;2024-02-14T08:32:10;7.45;;;5.35;;
43640;SDS011;72791;52.546;13.570;2024-02-14T08:34:36;8.98;;;4.93;;
43640;SDS011;72791;52.546;13.570;2024-02-14T08:37:04;8.40;;;5.35;;
43640;SDS011;72791;52.546;13.570;2024-02-14T08:39:30;7.75;;;4.50;;
43640;SDS011;72791;52.546;13.570;2024-02-14T08:41:56;6.28;;;4.60;;
43640;SDS011;72791;52.546;13.570;2024-02-14T08:44:21;6.68;;;4.43;;
43640;SDS011;72791;52.546;13.570;2024-02-14T08:46:48;9.13;;;5.78;;
43640;SDS011;72791;52.546;13.570;2024-02-14T08:49:14;8.30;;;4.78;;
43640;SDS011;72791;52.546;13.570;2024-02-14T08:51:40;8.30;;;4.57;;
43640;SDS011;72791;52.546;13.570;2024-02-14T08:54:08;12.52;;;4.80;;
43640;SDS011;72791;52.546;13.570;2024-02-14T08:56:34;6.53;;;4.47;;
43640;SDS011;72791;52.546;13.570;2024-02-14T08:59:01;9.23;;;4.65;;
43640;SDS011;72791;52.546;13.570;2024-02-14T09:01:30;8.40;;;4.75;;
43640;SDS011;72791;52.546;13.570;2024-02-14T09:03:57;5.93;;;4.53;;
43640;SDS011;72791;52.546;13.570;2024-02-14T09:06:24;7.43;;;4.38;;
43640;SDS011;72791;52.546;13.570;2024-02-14T09:08:51;9.40;;;4.90;;
43640;SDS011;72791;52.546;13.570;2024-02-14T09:11:18;10.90;;;5.07;;
43640;SDS011;72791;52.546;13.570;2024-02-14T09:13:44;8.02;;;4.30;;
43640;SDS011;72791;52.546;13.570;2024-02-14T09:16:12;8.35;;;4.78;;
43640;SDS011;72791;52.546;13.570;2024-02-14T09:18:40;7.75;;;4.78;;
43640;SDS011;72791;52.546;13.570;2024-02-14T09:21:07;9.20;;;4.78;;
43640;SDS011;72791;52.546;13.570;2024-02-14T09:23:34;8.10;;;4.97;;
43640;SDS011;72791;52.546;13.570;2024-02-14T09:26:00;9.82;;;4.30;;
43640;SDS011;72791;52.546;13.570;2024-02-14T09:28:26;8.65;;;4.43;;
43640;SDS011;72791;52.546;13.570;2024-02-14T09:30:52;8.93;;;4.75;;
43640;SDS011;72791;52.546;13.570;2024-02-14T09:33:20;8.30;;;5.07;;
43640;SDS011;72791;52.546;13.570;2024-02-14T09:35:45;6.68;;;4.82;;
43640;SDS011;72791;52.546;13.570;2024-02-14T09:38:13;5.55;;;4.05;;
43640;SDS011;72791;52.546;13.570;2024-02-14T09:40:42;6.13;;;4.00;;
43640;SDS011;72791;52.546;13.570;2024-02-14T09:43:36;10.38;;;4.97;;
43640;SDS011;72791;52.546;13.570;2024-02-14T09:46:08;7.93;;;5.22;;
43640;SDS011;72791;52.546;13.570;2024-02-14T09:48:38;7.18;;;4.65;;
43640;SDS011;72791;52.546;13.570;2024-02-14T09:51:05;8.63;;;4.03;;
43640;SDS011;72791;52.546;13.570;2024-02-14T09:53:32;8.13;;;4.03;;
43640;SDS011;72791;52.546;13.570;2024-02-14T09:55:58;9.27;;;4.22;;
43640;SDS011;72791;52.546;13.570;2024-02-14T09:58:26;8.43;;;4.18;;
43640;SDS011;72791;52.546;13.570;2024-02-14T10:00:53;8.18;;;4.30;;
43640;SDS011;72791;52.546;13.570;2024-02-14T10:03:19;8.05;;;4.10;;
43640;SDS011;72791;52.546;13.570;2024-02-14T10:05:44;6.90;;;4.60;;
43640;SDS011;72791;52.546;13.570;2024-02-14T10:08:10;9.13;;;4.75;;
43640;SDS011;72791;52.546;13.570;2024-02-14T10:10:37;7.88;;;4.60;;
43640;SDS011;72791;52.546;13.570;2024-02-14T10:13:06;5.97;;;4.18;;
43640;SDS011;72791;52.546;13.570;2024-02-14T10:15:32;6.50;;;4.22;;
43640;SDS011;72791;52.546;13.570;2024-02-14T10:18:00;10.07;;;4.60;;
43640;SDS011;72791;52.546;13.570;2024-02-14T10:20:26;6.88;;;3.97;;
43640;SDS011;72791;52.546;13.570;2024-02-14T10:23:00;8.18;;;4.68;;
43640;SDS011;72791;52.546;13.570;2024-02-14T10:25:27;5.47;;;4.03;;
43640;SDS011;72791;52.546;13.570;2024-02-14T10:27:53;5.63;;;3.63;;
43640;SDS011;72791;52.546;13.570;2024-02-14T10:30:20;6.88;;;3.47;;
43640;SDS011;72791;52.546;13.570;2024-02-14T10:32:46;6.00;;;3.40;;
43640;SDS011;72791;52.546;13.570;2024-02-14T10:35:14;7.40;;;3.13;;
43640;SDS011;72791;52.546;13.570;2024-02-14T10:37:41;5.18;;;3.53;;
43640;SDS011;72791;52.546;13.570;2024-02-14T10:40:09;5.43;;;3.53;;
43640;SDS011;72791;52.546;13.570;2024-02-14T10:42:35;4.57;;;3.25;;
43640;SDS011;72791;52.546;13.570;2024-02-14T10:45:02;7.78;;;3.60;;
43640;SDS011;72791;52.546;13.570;2024-02-14T10:47:33;7.50;;;3.50;;
43640;SDS011;72791;52.546;13.570;2024-02-14T10:50:04;3.75;;;3.05;;
43640;SDS011;72791;52.546;13.570;2024-02-14T10:52:32;7.05;;;3.35;;
43640;SDS011;72791;52.546;13.570;2024-02-14T10:55:02;4.80;;;3.65;;
43640;SDS011;72791;52.546;13.570;2024-02-14T10:57:29;8.60;;;4.18;;
43640;SDS011;72791;52.546;13.570;2024-02-14T10:59:57;7.57;;;3.42;;
43640;SDS011;72791;52.546;13.570;2024-02-14T11:02:26;7.38;;;4.18;;
43640;SDS011;72791;52.546;13.570;2024-02-14T11:04:55;5.53;;;3.70;;
43640;SDS011;72791;52.546;13.570;2024-02-14T11:07:21;10.52;;;3.72;;
43640;SDS011;72791;52.546;13.570;2024-02-14T11:10:08;5.85;;;3.67;;
43640;SDS011;72791;52.546;13.570;2024-02-14T11:12:39;5.38;;;3.35;;
43640;SDS011;72791;52.546;13.570;2024-02-14T11:18:12;6.05;;;3.10;;
43640;SDS011;72791;52.546;13.570;2024-02-14T11:20:37;5.55;;;3.20;;
43640;SDS011;72791;52.546;13.570;2024-02-14T11:23:06;4.80;;;3.10;;
43640;SDS011;72791;52.546;13.570;2024-02-14T11:25:36;4.50;;;2.75;;
43640;SDS011;72791;52.546;13.570;2024-02-14T11:30:44;6.53;;;2.83;;
43640;SDS011;72791;52.546;13.570;2024-02-14T11:33:20;4.07;;;2.83;;
43640;SDS011;72791;52.546;13.570;2024-02-14T11:35:48;4.15;;;3.05;;
43640;SDS011;72791;52.546;13.570;2024-02-14T11:38:17;6.03;;;2.97;;
43640;SDS011;72791;52.546;13.570;2024-02-14T11:40:44;5.55;;;3.30;;
43640;SDS011;72791;52.546;13.570;2024-02-14T11:43:14;6.20;;;4.15;;
43640;SDS011;72791;52.546;13.570;2024-02-14T11:45:43;7.30;;;4.65;;
43640;SDS011;72791;52.546;13.570;2024-02-14T11:48:13;8.73;;;4.18;;
43640;SDS011;72791;52.546;13.570;2024-02-14T11:50:40;7.40;;;4.53;;
43640;SDS011;72791;52.546;13.570;2024-02-14T11:53:06;7.32;;;4.53;;
43640;SDS011;72791;52.546;13.570;2024-02-14T11:55:39;6.78;;;4.00;;
43640;SDS011;72791;52.546;13.570;2024-02-14T11:58:07;9.38;;;4.35;;
43640;SDS011;72791;52.546;13.570;2024-02-14T12:00:33;5.85;;;3.72;;
43640;SDS011;72791;52.546;13.570;2024-02-14T12:03:03;5.82;;;3.80;;
43640;SDS011;72791;52.546;13.570;2024-02-14T12:05:32;8.95;;;4.45;;
43640;SDS011;72791;52.546;13.570;2024-02-14T12:07:59;9.25;;;4.45;;
43640;SDS011;72791;52.546;13.570;2024-02-14T12:10:26;6.93;;;4.43;;
43640;SDS011;72791;52.546;13.570;2024-02-14T12:12:52;5.68;;;3.67;;
43640;SDS011;72791;52.546;13.570;2024-02-14T12:15:17;5.80;;;3.90;;
43640;SDS011;72791;52.546;13.570;2024-02-14T12:17:45;6.75;;;3.83;;
43640;SDS011;72791;52.546;13.570;2024-02-14T12:20:14;5.85;;;3.85;;
43640;SDS011;72791;52.546;13.570;2024-02-14T12:22:41;7.25;;;3.90;;
43640;SDS011;72791;52.546;13.570;2024-02-14T12:25:11;13.73;;;4.55;;
43640;SDS011;72791;52.546;13.570;2024-02-14T12:27:39;7.07;;;4.03;;
43640;SDS011;72791;52.546;13.570;2024-02-14T12:30:06;8.82;;;4.10;;
43640;SDS011;72791;52.546;13.570;2024-02-14T12:32:35;7.57;;;4.60;;
43640;SDS011;72791;52.546;13.570;2024-02-14T12:35:01;8.52;;;5.25;;
43640;SDS011;72791;52.546;13.570;2024-02-14T12:37:27;5.63;;;4.30;;
43640;SDS011;72791;52.546;13.570;2024-02-14T12:39:53;5.93;;;4.28;;
43640;SDS011;72791;52.546;13.570;2024-02-14T12:42:20;8.40;;;4.20;;
43640;SDS011;72791;52.546;13.570;2024-02-14T12:44:51;10.32;;;4.95;;
43640;SDS011;72791;52.546;13.570;2024-02-14T12:47:18;5.85;;;4.35;;
43640;SDS011;72791;52.546;13.570;2024-02-14T12:49:44;9.50;;;4.22;;
43640;SDS011;72791;52.546;13.570;2024-02-14T12:52:10;7.53;;;4.63;;
43640;SDS011;72791;52.546;13.570;2024-02-14T12:54:37;8.52;;;4.13;;
43640;SDS011;72791;52.546;13.570;2024-02-14T12:57:03;6.43;;;4.25;;
43640;SDS011;72791;52.546;13.570;2024-02-14T12:59:29;6.13;;;4.22;;
43640;SDS011;72791;52.546;13.570;2024-02-14T13:01:55;6.43;;;4.60;;
43640;SDS011;72791;52.546;13.570;2024-02-14T13:04:20;6.45;;;4.20;;
43640;SDS011;72791;52.546;13.570;2024-02-14T13:06:46;9.38;;;4.43;;
43640;SDS011;72791;52.546;13.570;2024-02-14T13:09:13;7.20;;;4.25;;
43640;SDS011;72791;52.546;13.570;2024-02-14T13:11:39;5.88;;;4.78;;
43640;SDS011;72791;52.546;13.570;2024-02-14T13:14:09;7.03;;;4.10;;
43640;SDS011;72791;52.546;13.570;2024-02-14T13:16:34;9.15;;;4.50;;
43640;SDS011;72791;52.546;13.570;2024-02-14T13:19:00;6.72;;;4.30;;
43640;SDS011;72791;52.546;13.570;2024-02-14T13:21:27;6.40;;;4.78;;
43640;SDS011;72791;52.546;13.570;2024-02-14T13:23:54;7.90;;;4.03;;
43640;SDS011;72791;52.546;13.570;2024-02-14T13:26:40;8.00;;;4.57;;
43640;SDS011;72791;52.546;13.570;2024-02-14T13:29:25;6.28;;;4.82;;
43640;SDS011;72791;52.546;13.570;2024-02-14T13:31:51;7.72;;;4.40;;
43640;SDS011;72791;52.546;13.570;2024-02-14T13:34:17;9.30;;;4.43;;
43640;SDS011;72791;52.546;13.570;2024-02-14T13:36:46;6.65;;;4.97;;
43640;SDS011;72791;52.546;13.570;2024-02-14T13:39:12;5.55;;;4.88;;
43640;SDS011;72791;52.546;13.570;2024-02-14T13:41:57;5.22;;;4.70;;
43640;SDS011;72791;52.546;13.570;2024-02-14T13:44:25;9.73;;;5.13;;
43640;SDS011;72791;52.546;13.570;2024-02-14T13:46:51;6.07;;;4.95;;
43640;SDS011;72791;52.546;13.570;2024-02-14T13:49:40;10.15;;;6.63;;
43640;SDS011;72791;52.546;13.570;2024-02-14T13:52:25;9.45;;;5.25;;
43640;SDS011;72791;52.546;13.570;2024-02-14T13:55:40;11.77;;;5.80;;
43640;SDS011;72791;52.546;13.570;2024-02-14T13:58:27;8.20;;;5.10;;
43640;SDS011;72791;52.546;13.570;2024-02-14T14:01:12;12.45;;;5.70;;
43640;SDS011;72791;52.546;13.570;2024-02-14T14:03:57;11.10;;;6.20;;
43640;SDS011;72791;52.546;13.570;2024-02-14T14:06:42;7.45;;;5.30;;
43640;SDS011;72791;52.546;13.570;2024-02-14T14:09:22;8.95;;;5.13;;
43640;SDS011;72791;52.546;13.570;2024-02-14T14:11:51;8.65;;;5.65;;
43640;SDS011;72791;52.546;13.570;2024-02-14T14:14:40;7.55;;;5.72;;
43640;SDS011;72791;52.546;13.570;2024-02-14T14:17:39;6.88;;;5.43;;
43640;SDS011;72791;52.546;13.570;2024-02-14T14:20:25;9.77;;;6.13;;
43640;SDS011;72791;52.546;13.570;2024-02-14T14:23:24;10.13;;;5.60;;
43640;SDS011;72791;52.546;13.570;2024-02-14T14:26:42;7.32;;;5.78;;
43640;SDS011;72791;52.546;13.570;2024-02-14T14:30:28;8.68;;;6.18;;
43640;SDS011;72791;52.546;13.570;2024-02-14T14:34:13;8.65;;;5.25;;
43640;SDS011;72791;52.546;13.570;2024-02-14T14:41:46;7.40;;;6.10;;
43640;SDS011;72791;52.546;13.570;2024-02-14T14:45:06;7.78;;;6.10;;
43640;SDS011;72791;52.546;13.570;2024-02-14T14:49:11;7.03;;;5.87;;
43640;SDS011;72791;52.546;13.570;2024-02-14T14:51:59;9.13;;;6.47;;
43640;SDS011;72791;52.546;13.570;2024-02-14T14:58:32;9.77;;;6.43;;
43640;SDS011;72791;52.546;13.570;2024-02-14T15:02:06;8.00;;;6.03;;
43640;SDS011;72791;52.546;13.570;2024-02-14T15:05:26;9.60;;;6.30;;
43640;SDS011;72791;52.546;13.570;2024-02-14T15:08:36;10.23;;;6.30;;
43640;SDS011;72791;52.546;13.570;2024-02-14T15:11:14;9.32;;;6.45;;
43640;SDS011;72791;52.546;13.570;2024-02-14T15:14:26;7.85;;;5.53;;
43640;SDS011;72791;52.546;13.570;2024-02-14T15:17:54;8.65;;;6.25;;
43640;SDS011;72791;52.546;13.570;2024-02-14T15:21:50;9.52;;;5.15;;
43640;SDS011;72791;52.546;13.570;2024-02-14T15:24:43;6.63;;;5.45;;
43640;SDS011;72791;52.546;13.570;2024-02-14T15:27:49;7.60;;;5.88;;
43640;SDS011;72791;52.546;13.570;2024-02-14T15:30:47;9.95;;;5.70;;
43640;SDS011;72791;52.546;13.570;2024-02-14T15:33:52;10.82;;;5.40;;
43640;SDS011;72791;52.546;13.570;2024-02-14T15:37:24;9.32;;;5.55;;
43640;SDS011;72791;52.546;13.570;2024-02-14T15:39:53;6.60;;;5.28;;
43640;SDS011;72791;52.546;13.570;2024-02-14T15:42:26;11.63;;;5.55;;
43640;SDS011;72791;52.546;13.570;2024-02-14T15:44:57;8.90;;;5.22;;
43640;SDS011;72791;52.546;13.570;2024-02-14T15:51:37;9.05;;;5.70;;